createdAt,value
2019-01-29T00:03:46.334Z,100.00
2019-01-29T00:06:36.104Z,100.00
2019-01-29T00:09:18.994Z,100.00
2019-01-29T00:12:08.830Z,100.00
2019-01-29T00:14:51.538Z,100.00
2019-01-29T00:17:41.326Z,100.00
2019-01-29T00:20:27.914Z,100.00
2019-01-29T00:23:17.812Z,100.00
2019-01-29T00:29:04.496Z,100.00
2019-01-29T00:31:54.285Z,100.00
2019-01-29T00:34:36.696Z,100.00
2019-01-29T00:37:26.768Z,100.00
2019-01-29T00:40:09.893Z,100.00
2019-01-29T00:42:59.708Z,100.00
2019-01-29T00:45:42.919Z,100.00
2019-01-29T00:48:32.708Z,100.00
2019-01-29T00:51:16.187Z,100.00
2019-01-29T00:54:06.246Z,100.00
2019-01-29T00:56:49.168Z,100.00
2019-01-29T00:59:39.305Z,100.00
2019-01-29T01:02:29.436Z,100.00
2019-01-29T01:05:19.617Z,100.00
2019-01-29T01:08:09.557Z,100.00
2019-01-29T01:10:59.770Z,100.00
2019-01-29T01:13:49.580Z,100.00
2019-01-29T01:16:39.838Z,100.00
2019-01-29T01:19:22.707Z,100.00
2019-01-29T01:22:12.946Z,100.00
2019-01-29T01:25:02.688Z,100.00
2019-01-29T01:27:52.517Z,100.00
2019-01-29T01:30:42.975Z,100.00
2019-01-29T01:33:32.978Z,100.00
2019-01-29T01:36:22.952Z,100.00
2019-01-29T01:39:12.892Z,100.00
2019-01-29T01:42:02.780Z,100.00
2019-01-29T01:44:45.439Z,100.00
2019-01-29T01:47:35.753Z,100.00
2019-01-29T01:53:41.086Z,100.00
2019-01-29T01:56:27.627Z,100.00
2019-01-29T01:59:10.769Z,100.00
2019-01-29T02:02:01.103Z,100.00
2019-01-29T02:04:51.643Z,100.00
2019-01-29T02:07:41.509Z,100.00
2019-01-29T02:10:32.343Z,100.00
2019-01-29T02:13:22.135Z,100.00
2019-01-29T02:19:33.725Z,100.00
2019-01-29T02:22:23.827Z,100.00
2019-01-29T02:25:07.083Z,100.00
2019-01-29T02:27:57.147Z,100.00
2019-01-29T02:30:39.340Z,100.00
2019-01-29T02:36:35.358Z,100.00
2019-01-29T02:39:19.489Z,100.00
2019-01-29T02:42:09.956Z,100.00
2019-01-29T02:45:00.218Z,100.00
2019-01-29T02:47:50.039Z,100.00
2019-01-29T02:53:32.285Z,100.00
2019-01-29T02:56:22.069Z,100.00
2019-01-29T02:59:05.168Z,100.00
2019-01-29T03:02:15.278Z,100.00
2019-01-29T03:04:57.571Z,100.00
2019-01-29T03:07:47.689Z,100.00
2019-01-29T03:10:31.185Z,100.00
2019-01-29T03:19:24.603Z,100.00
2019-01-29T03:22:10.876Z,100.00
2019-01-29T03:24:54.329Z,100.00
2019-01-29T03:27:44.501Z,100.00
2019-01-29T03:30:34.651Z,100.00
2019-01-29T03:33:24.500Z,100.00
2019-01-29T03:45:29.333Z,100.00
2019-01-29T03:48:19.137Z,100.00
2019-01-29T03:51:02.174Z,100.00
2019-01-29T03:53:52.374Z,100.00
2019-01-29T03:56:39.334Z,100.00
2019-01-29T03:59:29.447Z,100.00
2019-01-29T04:02:12.434Z,100.00
2019-01-29T04:05:02.456Z,100.00
2019-01-29T04:07:48.188Z,100.00
2019-01-29T04:10:38.405Z,100.00
2019-01-29T04:13:22.523Z,100.00
2019-01-29T04:16:12.702Z,100.00
2019-01-29T04:18:57.355Z,100.00
2019-01-29T04:21:47.243Z,100.00
2019-01-29T04:24:31.275Z,100.00
2019-01-29T04:27:40.033Z,100.00
2019-01-29T04:30:22.833Z,100.00
2019-01-29T04:33:12.589Z,100.00
2019-01-29T04:35:55.023Z,100.00
2019-01-29T04:38:44.830Z,100.00
2019-01-29T04:41:17.352Z,100.00
2019-01-29T04:46:37.223Z,100.00
2019-01-29T04:49:27.210Z,100.00
2019-01-29T04:52:17.392Z,100.00
2019-01-29T04:58:04.514Z,100.00
2019-01-29T05:00:55.424Z,100.00
2019-01-29T05:03:37.869Z,100.00
2019-01-29T05:06:22.702Z,100.00
2019-01-29T05:09:07.894Z,100.00
2019-01-29T05:11:57.751Z,100.00
2019-01-29T05:14:47.904Z,100.00
2019-01-29T05:17:37.717Z,100.00
2019-01-29T05:20:27.995Z,100.00
2019-01-29T05:23:18.924Z,100.00
2019-01-29T05:26:10.739Z,100.00
2019-01-29T05:29:00.555Z,100.00
2019-01-29T05:31:42.798Z,100.00
2019-01-29T05:34:32.920Z,100.00
2019-01-29T05:37:23.022Z,100.00
2019-01-29T05:40:15.586Z,100.00
2019-01-29T05:42:58.337Z,100.00
2019-01-29T05:46:08.165Z,100.00
2019-01-29T05:48:58.304Z,100.00
2019-01-29T05:51:48.542Z,100.00
2019-01-29T05:54:38.300Z,100.00
2019-01-29T05:57:47.092Z,100.00
2019-01-29T06:06:39.846Z,100.00
2019-01-29T06:09:29.689Z,100.00
2019-01-29T06:12:20.120Z,100.00
2019-01-29T06:15:12.195Z,100.00
2019-01-29T06:18:02.512Z,100.00
2019-01-29T06:26:49.845Z,100.00
2019-01-29T06:29:39.654Z,100.00
2019-01-29T06:32:23.805Z,100.00
2019-01-29T06:35:06.371Z,100.00
2019-01-29T06:37:51.710Z,100.00
2019-01-29T06:40:36.832Z,100.00
2019-01-29T06:43:20.909Z,100.00
2019-01-29T06:46:08.795Z,100.00
2019-01-29T06:48:51.029Z,100.00
2019-01-29T06:54:34.263Z,100.00
2019-01-29T06:57:24.283Z,100.00
2019-01-29T07:00:09.352Z,100.00
2019-01-29T07:05:55.763Z,100.00
2019-01-29T07:08:45.513Z,100.00
2019-01-29T07:11:35.305Z,100.00
2019-01-29T07:14:25.081Z,100.00
2019-01-29T07:23:24.204Z,100.00
2019-01-29T07:26:14.322Z,100.00
2019-01-29T07:29:04.092Z,100.00
2019-01-29T07:31:47.486Z,100.00
2019-01-29T07:34:37.275Z,100.00
2019-01-29T07:37:22.067Z,100.00
2019-01-29T07:40:12.448Z,100.00
2019-01-29T07:42:56.601Z,100.00
2019-01-29T07:45:46.448Z,100.00
2019-01-29T07:48:36.537Z,100.00
2019-01-29T07:51:26.289Z,100.00
2019-01-29T07:54:16.063Z,100.00
2019-01-29T07:56:59.933Z,100.00
2019-01-29T07:59:49.709Z,100.00
2019-01-29T08:02:32.601Z,100.00
2019-01-29T08:05:22.374Z,100.00
2019-01-29T08:08:04.829Z,100.00
2019-01-29T08:11:15.946Z,100.00
2019-01-29T08:13:58.378Z,100.00
2019-01-29T08:16:48.451Z,100.00
2019-01-29T08:19:30.791Z,100.00
2019-01-29T08:22:20.610Z,100.00
2019-01-29T08:25:03.950Z,100.00
2019-01-29T08:27:53.701Z,100.00
2019-01-29T08:30:36.438Z,100.00
2019-01-29T08:33:26.569Z,100.00
2019-01-29T08:36:09.555Z,100.00
2019-01-29T08:38:59.282Z,100.00
2019-01-29T08:41:42.639Z,100.00
2019-01-29T08:44:32.711Z,100.00
2019-01-29T08:47:15.416Z,100.00
2019-01-29T08:50:25.763Z,100.00
2019-01-29T08:53:16.486Z,100.00
2019-01-29T08:55:58.689Z,100.00
2019-01-29T08:58:48.796Z,100.00
2019-01-29T09:07:42.229Z,100.00
2019-01-29T09:10:15.521Z,100.00
2019-01-29T09:13:05.259Z,100.00
2019-01-29T09:15:47.332Z,100.00
2019-01-29T09:18:37.448Z,100.00
2019-01-29T09:21:08.149Z,100.00
2019-01-29T09:23:57.942Z,100.00
2019-01-29T09:26:40.436Z,100.00
2019-01-29T09:29:31.060Z,100.00
2019-01-29T09:35:17.246Z,100.00
2019-01-29T09:38:07.372Z,100.00
2019-01-29T09:40:49.690Z,100.00
2019-01-29T09:43:39.472Z,100.00
2019-01-29T09:46:26.118Z,100.00
2019-01-29T09:49:15.898Z,100.00
2019-01-29T09:51:58.784Z,100.00
2019-01-29T09:54:48.540Z,100.00
2019-01-29T09:57:31.210Z,100.00
2019-01-29T10:00:40.509Z,98.70
2019-01-29T10:03:23.400Z,99.11
2019-01-29T10:06:14.084Z,96.86
2019-01-29T10:08:56.209Z,95.97
2019-01-29T10:11:46.286Z,98.17
2019-01-29T10:14:29.149Z,98.52
2019-01-29T10:20:15.864Z,94.84
2019-01-29T10:23:05.974Z,92.45
2019-01-29T10:25:47.950Z,89.46
2019-01-29T10:28:37.776Z,87.99
2019-01-29T10:31:21.587Z,89.60
2019-01-29T10:34:11.342Z,87.95
2019-01-29T10:36:53.800Z,88.90
2019-01-29T10:39:43.547Z,89.95
2019-01-29T10:42:26.936Z,89.90
2019-01-29T10:45:17.982Z,90.82
2019-01-29T10:48:03.530Z,89.97
2019-01-29T10:50:55.071Z,88.24
2019-01-29T10:53:37.979Z,88.79
2019-01-29T10:56:28.048Z,89.24
2019-01-29T10:59:17.200Z,89.04
2019-01-29T11:05:14.334Z,86.29
2019-01-29T11:14:18.692Z,76.95
2019-01-29T11:17:08.435Z,72.37
2019-01-29T11:20:17.250Z,71.99
2019-01-29T11:23:26.027Z,69.53
2019-01-29T11:26:11.718Z,63.79
2019-01-29T11:40:58.189Z,53.91
2019-01-29T11:49:55.826Z,55.44
2019-01-29T11:55:38.021Z,58.61
2019-01-29T12:04:46.914Z,54.72
2019-01-29T12:07:36.686Z,53.03
2019-01-29T12:13:20.623Z,51.35
2019-01-29T12:16:02.498Z,52.10
2019-01-29T12:18:52.550Z,54.25
2019-01-29T12:21:34.829Z,57.00
2019-01-29T12:24:24.701Z,60.20
2019-01-29T12:30:15.524Z,65.14
2019-01-29T12:36:22.829Z,62.85
2019-01-29T12:39:07.249Z,63.63
2019-01-29T12:41:57.019Z,62.83
2019-01-29T12:44:39.669Z,67.26
2019-01-29T12:47:29.433Z,65.08
2019-01-29T12:50:21.739Z,66.58
2019-01-29T12:53:06.187Z,63.70
2019-01-29T12:55:48.155Z,64.60
2019-01-29T12:58:37.922Z,63.39
2019-01-29T13:01:27.749Z,67.61
2019-01-29T13:04:36.555Z,62.20
2019-01-29T13:07:23.539Z,64.31
2019-01-29T13:13:07.062Z,64.31
2019-01-29T13:16:10.239Z,64.01
2019-01-29T13:21:52.007Z,63.38
2019-01-29T13:24:41.800Z,60.07
2019-01-29T13:27:24.787Z,62.18
2019-01-29T13:30:18.485Z,62.01
2019-01-29T13:33:03.021Z,62.04
2019-01-29T13:35:52.815Z,61.85
2019-01-29T13:38:35.901Z,60.46
2019-01-29T13:41:25.980Z,61.13
2019-01-29T13:44:08.046Z,64.64
2019-01-29T13:46:57.808Z,65.19
2019-01-29T13:49:40.368Z,64.43
2019-01-29T13:52:30.120Z,64.85
2019-01-29T13:55:13.706Z,65.09
2019-01-29T14:00:59.507Z,63.79
2019-01-29T14:03:50.030Z,64.27
2019-01-29T14:06:40.136Z,64.64
2019-01-29T14:09:30.666Z,63.54
2019-01-29T14:12:20.468Z,61.73
2019-01-29T14:18:07.931Z,63.95
2019-01-29T14:20:50.352Z,64.18
2019-01-29T14:23:40.208Z,62.53
2019-01-29T14:26:29.976Z,63.79
2019-01-29T14:29:19.858Z,65.24
2019-01-29T14:32:09.764Z,67.08
2019-01-29T14:35:13.200Z,67.95
2019-01-29T14:38:14.760Z,70.45
2019-01-29T14:41:04.836Z,71.29
2019-01-29T14:43:48.239Z,68.94
2019-01-29T14:46:38.112Z,70.14
2019-01-29T14:49:22.160Z,72.42
2019-01-29T14:52:11.962Z,72.97
2019-01-29T14:54:58.117Z,70.86
2019-01-29T15:00:53.324Z,68.66
2019-01-29T15:03:37.143Z,66.27
2019-01-29T15:06:32.323Z,67.68
2019-01-29T15:09:18.703Z,67.15
2019-01-29T15:14:56.379Z,65.17
2019-01-29T15:18:04.990Z,65.63
2019-01-29T15:20:35.958Z,63.59
2019-01-29T15:23:25.704Z,62.57
2019-01-29T15:26:15.476Z,62.13
2019-01-29T15:32:01.684Z,64.35
2019-01-29T15:34:51.495Z,64.29
2019-01-29T15:37:34.528Z,65.65
2019-01-29T15:40:24.674Z,67.20
2019-01-29T15:43:07.293Z,67.99
2019-01-29T15:45:38.172Z,67.82
2019-01-29T15:48:27.943Z,68.80
2019-01-29T15:51:11.936Z,70.55
2019-01-29T15:53:54.480Z,71.86
2019-01-29T15:56:45.280Z,72.19
2019-01-29T15:59:27.495Z,76.75
2019-01-29T16:02:09.546Z,80.27
2019-01-29T16:04:59.519Z,85.77
2019-01-29T16:07:43.530Z,88.68
2019-01-29T16:10:26.819Z,91.46
2019-01-29T16:13:16.633Z,96.16
2019-01-29T16:15:59.273Z,97.86
2019-01-29T16:18:49.111Z,100.00
2019-01-29T16:21:38.934Z,100.00
2019-01-29T16:24:28.847Z,100.00
2019-01-29T16:27:22.773Z,100.00
2019-01-29T16:30:03.411Z,100.00
2019-01-29T16:32:53.215Z,100.00
2019-01-29T16:35:44.064Z,100.00
2019-01-29T16:38:33.993Z,100.00
2019-01-29T16:41:23.781Z,100.00
2019-01-29T16:44:14.257Z,100.00
2019-01-29T16:47:04.082Z,100.00
2019-01-29T16:49:53.937Z,100.00
2019-01-29T16:52:43.819Z,100.00
2019-01-29T16:55:33.602Z,100.00
2019-01-29T16:58:23.329Z,100.00
2019-01-29T17:01:13.061Z,100.00
2019-01-29T17:04:04.662Z,100.00
2019-01-29T17:06:47.498Z,100.00
2019-01-29T17:09:37.595Z,100.00
2019-01-29T17:12:20.433Z,100.00
2019-01-29T17:15:13.003Z,100.00
2019-01-29T17:17:55.623Z,100.00
2019-01-29T17:20:45.519Z,100.00
2019-01-29T17:23:28.235Z,100.00
2019-01-29T17:26:18.354Z,100.00
2019-01-29T17:29:05.679Z,100.00
2019-01-29T17:31:56.000Z,100.00
2019-01-29T17:34:40.632Z,99.84
2019-01-29T17:40:24.106Z,98.75
2019-01-29T17:43:15.137Z,97.10
2019-01-29T17:45:57.518Z,97.96
2019-01-29T17:48:47.355Z,99.12
2019-01-29T17:51:37.144Z,98.67
2019-01-29T17:54:26.950Z,100.00
2019-01-29T17:57:16.729Z,100.00
2019-01-29T18:00:09.014Z,100.00
2019-01-29T18:02:58.836Z,100.00
2019-01-29T18:05:43.058Z,100.00
2019-01-29T18:08:32.946Z,100.00
2019-01-29T18:14:24.312Z,100.00
2019-01-29T18:17:14.127Z,100.00
2019-01-29T18:20:04.047Z,100.00
2019-01-29T18:22:53.852Z,100.00
2019-01-29T18:26:02.552Z,100.00
2019-01-29T18:31:57.774Z,100.00
2019-01-29T18:34:40.170Z,100.00
2019-01-29T18:37:31.238Z,100.00
2019-01-29T18:43:25.980Z,100.00
2019-01-29T18:49:07.826Z,100.00
2019-01-29T18:52:00.054Z,100.00
2019-01-29T18:54:47.670Z,100.00
2019-01-29T18:57:38.288Z,100.00
2019-01-29T19:00:21.904Z,100.00
2019-01-29T19:03:11.734Z,100.00
2019-01-29T19:05:53.730Z,100.00
2019-01-29T19:08:43.520Z,100.00
2019-01-29T19:11:25.424Z,100.00
2019-01-29T19:14:15.196Z,100.00
2019-01-29T19:16:57.730Z,100.00
2019-01-29T19:19:47.494Z,100.00
2019-01-29T19:22:30.292Z,100.00
2019-01-29T19:25:20.072Z,100.00
2019-01-29T19:28:02.940Z,100.00
2019-01-29T19:30:52.726Z,100.00
2019-01-29T19:33:35.168Z,100.00
2019-01-29T19:39:26.017Z,100.00
2019-01-29T19:42:08.078Z,100.00
2019-01-29T19:44:57.919Z,100.00
2019-01-29T19:47:47.800Z,100.00
2019-01-29T19:50:37.520Z,100.00
2019-01-29T19:53:20.490Z,100.00
2019-01-29T19:56:10.443Z,100.00
2019-01-29T19:59:00.274Z,100.00
2019-01-29T20:01:50.080Z,100.00
2019-01-29T20:04:39.839Z,100.00
2019-01-29T20:07:22.177Z,100.00
2019-01-29T20:10:13.129Z,100.00
2019-01-29T20:12:55.502Z,100.00
2019-01-29T20:15:45.297Z,100.00
2019-01-29T20:18:27.893Z,100.00
2019-01-29T20:21:17.689Z,100.00
2019-01-29T20:24:00.365Z,100.00
2019-01-29T20:26:50.134Z,100.00
2019-01-29T20:29:32.854Z,100.00
2019-01-29T20:32:22.662Z,100.00
2019-01-29T20:35:04.839Z,100.00
2019-01-29T20:37:54.594Z,100.00
2019-01-29T20:40:37.043Z,100.00
2019-01-29T20:43:26.826Z,100.00
2019-01-29T20:46:09.592Z,100.00
2019-01-29T20:48:59.351Z,100.00
2019-01-29T20:51:41.759Z,100.00
2019-01-29T20:54:31.556Z,100.00
2019-01-29T20:57:13.947Z,100.00
2019-01-29T21:00:16.142Z,100.00
2019-01-29T21:02:47.014Z,100.00
2019-01-29T21:05:37.099Z,100.00
2019-01-29T21:08:19.717Z,100.00
2019-01-29T21:14:13.186Z,100.00
2019-01-29T21:16:56.615Z,100.00
2019-01-29T21:19:38.805Z,100.00
2019-01-29T21:22:28.603Z,100.00
2019-01-29T21:25:11.593Z,100.00
2019-01-29T21:28:01.475Z,100.00
2019-01-29T21:30:52.832Z,100.00
2019-01-29T21:33:42.659Z,100.00
2019-01-29T21:36:32.643Z,100.00
2019-01-29T21:39:22.477Z,100.00
2019-01-29T21:42:12.389Z,100.00
2019-01-29T21:45:02.323Z,100.00
2019-01-29T21:47:52.393Z,100.00
2019-01-29T21:50:25.974Z,100.00
2019-01-29T21:53:15.742Z,100.00
2019-01-29T21:55:58.527Z,100.00
2019-01-29T21:58:48.543Z,100.00
2019-01-29T22:01:57.049Z,100.00
2019-01-29T22:04:54.819Z,100.00
2019-01-29T22:08:05.102Z,100.00
2019-01-29T22:10:51.779Z,100.00
2019-01-29T22:14:01.445Z,100.00
2019-01-29T22:16:44.459Z,100.00
2019-01-29T22:19:34.266Z,100.00
2019-01-29T22:22:18.879Z,100.00
2019-01-29T22:25:11.738Z,100.00
2019-01-29T22:28:01.809Z,100.00
2019-01-29T22:30:43.862Z,100.00
2019-01-29T22:33:33.983Z,100.00
2019-01-29T22:36:18.291Z,100.00
2019-01-29T22:39:09.622Z,100.00
2019-01-29T22:41:58.174Z,100.00
2019-01-29T22:44:48.295Z,100.00
2019-01-29T22:47:32.262Z,100.00
2019-01-29T22:50:41.762Z,100.00
2019-01-29T22:53:24.979Z,100.00
2019-01-29T22:56:15.618Z,100.00
2019-01-29T22:59:02.100Z,100.00
2019-01-29T23:01:49.391Z,100.00
2019-01-29T23:04:43.618Z,100.00
2019-01-29T23:07:36.760Z,100.00
2019-01-29T23:10:26.547Z,100.00
2019-01-29T23:15:57.718Z,100.00
2019-01-29T23:18:48.722Z,100.00
2019-01-29T23:21:38.462Z,100.00
2019-01-29T23:30:25.419Z,100.00
2019-01-29T23:42:28.177Z,100.00
2019-01-29T23:45:18.093Z,100.00
2019-01-29T23:48:10.191Z,100.00
2019-01-29T23:50:53.722Z,100.00
2019-01-29T23:53:36.447Z,100.00
2019-01-29T23:59:08.104Z,100.00
